Time;durP1;ratioP1;P1;durP2;ratioP2;P2;SDS_P1;SDS_P2;PMS_P1;PMS_P2;Temp;Humidity;BMP_temperature;BMP_pressure;BME280_temperature;BME280_humidity;BME280_pressure;Samples;Min_cycle;Max_cycle;Signal;HPM_P1;HPM_P2
2024/03/15 00:00:35;;;;;;;8.20;4.88;;;;;;;;;;5025414;28;20121;-85
2024/03/15 00:03:01;;;;;;;7.13;4.45;;;;;;;;;;5027859;28;20033;-83
2024/03/15 00:05:27;;;;;;;7.63;5.00;;;;;;;;;;5023867;28;20028;-84
2024/03/15 00:07:53;;;;;;;8.13;5.15;;;;;;;;;;5028449;28;20465;-84
2024/03/15 00:10:18;;;;;;;9.07;5.07;;;;;;;;;;5014899;28;20435;-83
2024/03/15 00:12:45;;;;;;;8.25;5.30;;;;;;;;;;5035981;28;20080;-84
2024/03/15 00:15:11;;;;;;;7.38;5.03;;;;;;;;;;5031539;28;20108;-84
2024/03/15 00:17:37;;;;;;;8.85;5.35;;;;;;;;;;5031742;28;20116;-82
2024/03/15 00:20:03;;;;;;;8.93;5.32;;;;;;;;;;5028124;28;20021;-83
2024/03/15 00:22:29;;;;;;;7.65;5.18;;;;;;;;;;5025742;28;20061;-82
2024/03/15 00:24:54;;;;;;;7.25;5.00;;;;;;;;;;5010961;28;20507;-84
2024/03/15 00:27:20;;;;;;;8.07;5.20;;;;;;;;;;5019818;28;20033;-84
2024/03/15 00:29:45;;;;;;;7.90;5.00;;;;;;;;;;5011436;28;20120;-84
2024/03/15 00:32:11;;;;;;;8.85;5.35;;;;;;;;;;5025387;28;20116;-85
2024/03/15 00:34:37;;;;;;;7.70;5.40;;;;;;;;;;5008847;28;20976;-83
2024/03/15 00:37:03;;;;;;;7.95;4.65;;;;;;;;;;5006543;28;20028;-83
2024/03/15 00:39:28;;;;;;;10.10;5.60;;;;;;;;;;5019298;28;20391;-82
2024/03/15 00:41:54;;;;;;;8.23;5.38;;;;;;;;;;5022160;28;20025;-82
2024/03/15 00:44:19;;;;;;;9.05;5.43;;;;;;;;;;5025684;28;20035;-82
2024/03/15 00:46:45;;;;;;;8.05;5.53;;;;;;;;;;5009442;28;20025;-83
2024/03/15 00:49:13;;;;;;;6.85;4.93;;;;;;;;;;5024214;28;20123;-82
2024/03/15 00:51:38;;;;;;;9.45;5.28;;;;;;;;;;5022207;28;20045;-82
2024/03/15 00:54:04;;;;;;;10.88;5.45;;;;;;;;;;5022781;28;20033;-83
2024/03/15 00:56:29;;;;;;;10.00;5.43;;;;;;;;;;5006762;28;20728;-83
2024/03/15 00:58:55;;;;;;;9.35;5.68;;;;;;;;;;5011250;28;20057;-83
2024/03/15 01:01:20;;;;;;;9.95;5.85;;;;;;;;;;5006379;28;20118;-83
2024/03/15 01:03:46;;;;;;;9.13;5.50;;;;;;;;;;5008172;28;20029;-82
2024/03/15 01:06:13;;;;;;;8.43;5.45;;;;;;;;;;5007828;28;20029;-83
2024/03/15 01:08:39;;;;;;;8.35;5.18;;;;;;;;;;5021081;28;20036;-83
2024/03/15 01:11:05;;;;;;;7.32;5.15;;;;;;;;;;5024021;28;20400;-82
2024/03/15 01:13:30;;;;;;;9.00;5.55;;;;;;;;;;5010901;28;20034;-80
2024/03/15 01:15:56;;;;;;;7.47;4.93;;;;;;;;;;5027308;28;20438;-79
2024/03/15 01:18:21;;;;;;;11.25;5.13;;;;;;;;;;5020584;28;20118;-80
2024/03/15 01:20:46;;;;;;;10.60;5.00;;;;;;;;;;5025351;28;20094;-79
2024/03/15 01:23:12;;;;;;;7.78;5.20;;;;;;;;;;5018425;28;20065;-79
2024/03/15 01:25:39;;;;;;;9.68;5.18;;;;;;;;;;5021572;28;20021;-82
2024/03/15 01:28:06;;;;;;;9.45;5.57;;;;;;;;;;5032436;28;20021;-79
2024/03/15 01:30:32;;;;;;;10.35;5.28;;;;;;;;;;5010733;28;20151;-80
2024/03/15 01:32:58;;;;;;;8.75;5.43;;;;;;;;;;5022483;28;20029;-79
2024/03/15 01:35:32;;;;;;;7.07;5.07;;;;;;;;;;5019227;28;20033;-79
2024/03/15 01:38:00;;;;;;;8.18;5.20;;;;;;;;;;5016784;28;20044;-79
2024/03/15 01:40:30;;;;;;;8.68;5.63;;;;;;;;;;5030207;28;20056;-78
2024/03/15 01:42:56;;;;;;;7.53;5.32;;;;;;;;;;5024651;28;20047;-79
2024/03/15 01:45:21;;;;;;;8.20;5.13;;;;;;;;;;5020483;28;20044;-81
2024/03/15 01:47:47;;;;;;;7.22;5.53;;;;;;;;;;5008623;28;20085;-79
2024/03/15 01:50:13;;;;;;;8.73;5.38;;;;;;;;;;5030366;28;20038;-79
2024/03/15 01:52:41;;;;;;;8.98;5.45;;;;;;;;;;5029500;28;20028;-80
2024/03/15 01:55:07;;;;;;;11.38;5.25;;;;;;;;;;5017096;28;20083;-80
2024/03/15 01:57:33;;;;;;;7.72;5.70;;;;;;;;;;5017856;28;20025;-80
2024/03/15 01:59:59;;;;;;;7.22;5.18;;;;;;;;;;5017683;28;20021;-82
2024/03/15 02:02:27;;;;;;;8.40;5.13;;;;;;;;;;5031911;22;20082;-79
2024/03/15 02:04:54;;;;;;;8.63;5.53;;;;;;;;;;5053827;28;20029;-81
2024/03/15 02:07:29;;;;;;;10.60;6.57;;;;;;;;;;5059703;28;20068;-80
2024/03/15 02:09:56;;;;;;;9.68;5.70;;;;;;;;;;5058784;28;20043;-83
2024/03/15 02:12:21;;;;;;;8.63;5.45;;;;;;;;;;5058120;28;20466;-82
2024/03/15 02:14:50;;;;;;;9.35;5.22;;;;;;;;;;5062038;28;20128;-83
2024/03/15 02:17:20;;;;;;;10.38;5.60;;;;;;;;;;5057026;28;20530;-82
2024/03/15 02:19:46;;;;;;;9.30;5.57;;;;;;;;;;5079198;28;20114;-84
2024/03/15 02:22:11;;;;;;;8.30;4.85;;;;;;;;;;5062476;28;20016;-83
2024/03/15 02:24:37;;;;;;;8.90;5.55;;;;;;;;;;5070664;28;20031;-83
2024/03/15 02:27:05;;;;;;;9.48;5.43;;;;;;;;;;5048660;28;20032;-83
2024/03/15 02:29:31;;;;;;;8.10;5.18;;;;;;;;;;5056942;28;20347;-82
2024/03/15 02:31:56;;;;;;;6.70;4.55;;;;;;;;;;5060081;28;20033;-82
2024/03/15 02:34:21;;;;;;;8.60;5.15;;;;;;;;;;5060362;28;20019;-82
2024/03/15 02:36:47;;;;;;;8.70;5.03;;;;;;;;;;5074626;28;20032;-83
2024/03/15 02:39:19;;;;;;;8.82;4.90;;;;;;;;;;5056297;28;20062;-83
2024/03/15 02:41:45;;;;;;;8.32;5.28;;;;;;;;;;5057788;28;20067;-83
2024/03/15 02:44:11;;;;;;;7.13;5.03;;;;;;;;;;5066486;28;20403;-84
2024/03/15 02:46:37;;;;;;;10.18;5.43;;;;;;;;;;5061690;28;20035;-83
2024/03/15 02:49:06;;;;;;;7.45;4.78;;;;;;;;;;5072102;28;20032;-83
2024/03/15 02:51:31;;;;;;;8.95;4.60;;;;;;;;;;5057784;28;20072;-83
2024/03/15 02:53:57;;;;;;;6.38;4.68;;;;;;;;;;5073464;28;20056;-84
2024/03/15 02:56:22;;;;;;;8.27;4.78;;;;;;;;;;5060740;28;20070;-85
2024/03/15 02:58:48;;;;;;;7.57;4.90;;;;;;;;;;5065543;28;20032;-84
2024/03/15 03:01:14;;;;;;;8.70;4.82;;;;;;;;;;5060839;28;20115;-85
2024/03/15 03:03:43;;;;;;;8.18;4.90;;;;;;;;;;5058913;28;20024;-85
2024/03/15 03:06:09;;;;;;;8.00;4.88;;;;;;;;;;5059379;28;20364;-84
2024/03/15 03:08:35;;;;;;;6.97;4.70;;;;;;;;;;5071394;28;20060;-83
2024/03/15 03:11:01;;;;;;;7.82;4.60;;;;;;;;;;5073630;28;20054;-84
2024/03/15 03:13:27;;;;;;;6.78;4.60;;;;;;;;;;5054853;28;20109;-84
2024/03/15 03:15:52;;;;;;;7.50;4.50;;;;;;;;;;5076240;28;20033;-84
2024/03/15 03:18:18;;;;;;;7.25;4.35;;;;;;;;;;5059321;28;20421;-83
2024/03/15 03:20:43;;;;;;;9.13;4.80;;;;;;;;;;5061625;28;20031;-84
2024/03/15 03:23:09;;;;;;;7.65;4.35;;;;;;;;;;5060067;28;20028;-84
2024/03/15 03:25:35;;;;;;;8.60;4.45;;;;;;;;;;5054355;28;20031;-84
2024/03/15 03:28:00;;;;;;;8.55;4.30;;;;;;;;;;5062446;28;20491;-84
2024/03/15 03:30:26;;;;;;;7.30;4.70;;;;;;;;;;5055694;28;20055;-82
2024/03/15 03:32:52;;;;;;;9.00;4.80;;;;;;;;;;5057198;28;20050;-82
2024/03/15 03:35:17;;;;;;;6.38;4.50;;;;;;;;;;5051494;28;20028;-82
2024/03/15 03:37:43;;;;;;;8.32;4.38;;;;;;;;;;5057661;28;20419;-82
2024/03/15 03:40:14;;;;;;;6.60;4.57;;;;;;;;;;5071615;28;20775;-83
2024/03/15 03:42:43;;;;;;;7.63;4.57;;;;;;;;;;5054463;28;20112;-83
2024/03/15 03:45:17;;;;;;;7.07;4.43;;;;;;;;;;5049494;28;20427;-83
2024/03/15 03:47:45;;;;;;;9.02;4.60;;;;;;;;;;5068948;28;20472;-83
2024/03/15 03:50:13;;;;;;;7.55;4.70;;;;;;;;;;5060065;28;20039;-83
2024/03/15 03:52:40;;;;;;;7.57;4.43;;;;;;;;;;5071482;28;20391;-83
2024/03/15 03:55:07;;;;;;;6.22;4.10;;;;;;;;;;5070188;28;20031;-83
2024/03/15 03:57:38;;;;;;;7.45;4.40;;;;;;;;;;5074424;28;20375;-83
2024/03/15 04:00:05;;;;;;;6.68;4.32;;;;;;;;;;5075239;28;20476;-83
2024/03/15 04:02:32;;;;;;;9.65;4.90;;;;;;;;;;5059359;28;20517;-82
2024/03/15 04:05:03;;;;;;;6.85;4.32;;;;;;;;;;5052752;28;23300;-81
2024/03/15 04:07:29;;;;;;;6.55;4.30;;;;;;;;;;5072283;28;20471;-81
2024/03/15 04:09:55;;;;;;;8.38;4.40;;;;;;;;;;5076850;28;20070;-81
2024/03/15 04:12:21;;;;;;;7.25;4.10;;;;;;;;;;5056954;28;20037;-81
2024/03/15 04:14:49;;;;;;;6.72;4.43;;;;;;;;;;5059605;28;20028;-80
2024/03/15 04:17:19;;;;;;;9.07;4.65;;;;;;;;;;5075712;28;20024;-80
2024/03/15 04:19:45;;;;;;;9.43;4.35;;;;;;;;;;5061164;28;20556;-81
2024/03/15 04:22:11;;;;;;;8.77;4.68;;;;;;;;;;5069350;28;20470;-80
2024/03/15 04:24:37;;;;;;;7.45;4.35;;;;;;;;;;5077801;28;20053;-79
2024/03/15 04:27:03;;;;;;;6.32;4.55;;;;;;;;;;5072021;28;20033;-80
2024/03/15 04:29:30;;;;;;;6.07;4.25;;;;;;;;;;5062718;28;20561;-81
2024/03/15 04:31:57;;;;;;;7.55;4.40;;;;;;;;;;5050245;28;20139;-80
2024/03/15 04:34:24;;;;;;;7.80;4.53;;;;;;;;;;5067787;28;20032;-81
2024/03/15 04:36:50;;;;;;;7.85;4.55;;;;;;;;;;5070629;28;20084;-79
2024/03/15 04:39:18;;;;;;;6.82;4.20;;;;;;;;;;5064798;28;20105;-80
2024/03/15 04:41:44;;;;;;;6.30;4.20;;;;;;;;;;5065399;28;20033;-83
2024/03/15 04:44:09;;;;;;;6.13;3.80;;;;;;;;;;5060893;28;20322;-83
2024/03/15 04:46:35;;;;;;;9.00;4.53;;;;;;;;;;5067636;28;20106;-83
2024/03/15 04:49:00;;;;;;;7.85;4.00;;;;;;;;;;5064976;28;20028;-83
2024/03/15 04:51:26;;;;;;;9.57;4.40;;;;;;;;;;5068708;28;20454;-83
2024/03/15 04:53:51;;;;;;;7.25;4.22;;;;;;;;;;5062619;28;20047;-83
2024/03/15 04:56:17;;;;;;;6.32;4.10;;;;;;;;;;5047171;28;20399;-83
2024/03/15 04:58:43;;;;;;;7.53;3.92;;;;;;;;;;5050925;28;20066;-83
2024/03/15 05:01:10;;;;;;;8.55;4.38;;;;;;;;;;5064142;28;20029;-80
2024/03/15 05:03:37;;;;;;;6.63;4.10;;;;;;;;;;5051315;28;20028;-82
2024/03/15 05:06:04;;;;;;;6.60;4.25;;;;;;;;;;5056851;28;20391;-81
2024/03/15 05:08:29;;;;;;;7.30;4.13;;;;;;;;;;5075148;28;20123;-80
2024/03/15 05:10:56;;;;;;;7.80;4.00;;;;;;;;;;5075009;28;20119;-80
2024/03/15 05:13:21;;;;;;;7.72;4.30;;;;;;;;;;5050323;28;20028;-84
2024/03/15 05:15:48;;;;;;;10.10;4.78;;;;;;;;;;5049291;28;20081;-83
2024/03/15 05:18:13;;;;;;;6.35;4.00;;;;;;;;;;5076054;28;20047;-83
2024/03/15 05:20:39;;;;;;;8.32;4.30;;;;;;;;;;5066926;28;20488;-83
2024/03/15 05:23:07;;;;;;;6.53;3.78;;;;;;;;;;5054560;28;20024;-83
2024/03/15 05:25:33;;;;;;;7.38;4.05;;;;;;;;;;5054597;28;20059;-83
2024/03/15 05:27:58;;;;;;;7.07;4.22;;;;;;;;;;5048639;28;20467;-81
2024/03/15 05:30:24;;;;;;;6.78;4.07;;;;;;;;;;5068455;28;20028;-79
2024/03/15 05:32:52;;;;;;;6.93;4.10;;;;;;;;;;5051148;28;20111;-82
2024/03/15 05:35:20;;;;;;;5.88;3.78;;;;;;;;;;5068554;28;20391;-82
2024/03/15 05:37:46;;;;;;;7.05;3.65;;;;;;;;;;5050085;28;20104;-81
2024/03/15 05:40:12;;;;;;;8.30;4.25;;;;;;;;;;5065551;28;20157;-84
2024/03/15 05:42:37;;;;;;;6.53;3.67;;;;;;;;;;5048400;28;20062;-83
2024/03/15 05:45:04;;;;;;;7.10;3.97;;;;;;;;;;5063748;28;20399;-81
2024/03/15 05:47:29;;;;;;;7.35;4.03;;;;;;;;;;5044598;28;20387;-81
2024/03/15 05:49:54;;;;;;;6.57;3.95;;;;;;;;;;5062735;28;20036;-82
2024/03/15 05:52:20;;;;;;;7.35;4.20;;;;;;;;;;5048478;28;20028;-82
2024/03/15 05:54:48;;;;;;;7.35;4.05;;;;;;;;;;5047523;28;20537;-81
2024/03/15 05:57:14;;;;;;;8.00;4.15;;;;;;;;;;5056572;28;20383;-80
2024/03/15 05:59:39;;;;;;;7.22;4.18;;;;;;;;;;5067666;28;20032;-79
2024/03/15 06:02:06;;;;;;;7.82;4.03;;;;;;;;;;5052153;28;20036;-80
2024/03/15 06:04:35;;;;;;;9.32;4.40;;;;;;;;;;5053716;28;20036;-80
2024/03/15 06:07:02;;;;;;;6.55;3.83;;;;;;;;;;5056013;28;20029;-79
2024/03/15 06:09:29;;;;;;;5.72;4.15;;;;;;;;;;5055269;28;20025;-80
2024/03/15 06:12:01;;;;;;;6.82;3.90;;;;;;;;;;5056971;28;20517;-81
2024/03/15 06:14:26;;;;;;;7.43;4.00;;;;;;;;;;5058271;28;20053;-80
2024/03/15 06:16:52;;;;;;;7.35;4.00;;;;;;;;;;5069430;28;20040;-84
2024/03/15 06:19:17;;;;;;;7.45;4.10;;;;;;;;;;5051863;28;20039;-83
2024/03/15 06:21:43;;;;;;;6.45;3.50;;;;;;;;;;5048477;28;20064;-81
2024/03/15 06:24:10;;;;;;;5.88;3.63;;;;;;;;;;5064249;28;20411;-79
2024/03/15 06:26:36;;;;;;;6.00;3.60;;;;;;;;;;5047586;28;20028;-83
2024/03/15 06:29:02;;;;;;;7.05;3.50;;;;;;;;;;5049338;28;20035;-81
2024/03/15 06:31:27;;;;;;;6.22;3.60;;;;;;;;;;5046677;28;20123;-83
2024/03/15 06:33:56;;;;;;;6.82;3.80;;;;;;;;;;5047137;28;20041;-84
2024/03/15 06:36:29;;;;;;;7.65;3.72;;;;;;;;;;5048428;28;20048;-82
2024/03/15 06:39:08;;;;;;;7.65;3.63;;;;;;;;;;5042809;28;20032;-82
2024/03/15 06:41:37;;;;;;;6.13;3.45;;;;;;;;;;5046370;28;20024;-83
2024/03/15 06:49:43;;;;;;;7.50;3.92;;;;;;;;;;5064830;28;20106;-78
2024/03/15 06:54:56;;;;;;;7.47;4.05;;;;;;;;;;5069806;28;20055;-80
2024/03/15 06:57:22;;;;;;;6.78;3.67;;;;;;;;;;5071802;28;20357;-79
2024/03/15 06:59:48;;;;;;;8.82;3.60;;;;;;;;;;5059575;28;20017;-78
2024/03/15 07:02:14;;;;;;;6.07;3.80;;;;;;;;;;5050845;28;20024;-78
2024/03/15 07:04:40;;;;;;;8.50;3.78;;;;;;;;;;5072600;28;20509;-78
2024/03/15 07:07:06;;;;;;;8.00;3.60;;;;;;;;;;5054334;28;20033;-81
2024/03/15 07:09:32;;;;;;;8.27;3.83;;;;;;;;;;5069309;28;20039;-80
2024/03/15 07:11:58;;;;;;;7.13;3.92;;;;;;;;;;5056368;28;20384;-80
2024/03/15 07:14:23;;;;;;;7.75;3.53;;;;;;;;;;5053660;28;20424;-80
2024/03/15 07:16:49;;;;;;;7.70;3.72;;;;;;;;;;5049142;28;20128;-81
2024/03/15 07:19:15;;;;;;;5.97;3.80;;;;;;;;;;5049165;28;20047;-81
2024/03/15 07:21:41;;;;;;;6.57;3.80;;;;;;;;;;5065617;28;20055;-80
2024/03/15 07:24:07;;;;;;;6.72;3.58;;;;;;;;;;5046579;28;20456;-81
2024/03/15 07:26:34;;;;;;;7.68;3.75;;;;;;;;;;5062351;28;20518;-80
2024/03/15 07:29:00;;;;;;;5.88;3.80;;;;;;;;;;5050788;28;20020;-81
2024/03/15 07:31:26;;;;;;;8.75;4.25;;;;;;;;;;5047802;28;20029;-82
2024/03/15 07:33:52;;;;;;;7.07;3.80;;;;;;;;;;5049658;28;20020;-80
2024/03/15 07:36:20;;;;;;;7.40;3.50;;;;;;;;;;5066200;28;20449;-81
2024/03/15 07:38:47;;;;;;;5.75;3.40;;;;;;;;;;5062999;28;20029;-81
2024/03/15 07:41:13;;;;;;;6.50;3.38;;;;;;;;;;5063121;28;20032;-81
2024/03/15 07:43:41;;;;;;;6.45;3.40;;;;;;;;;;5066505;28;20024;-82
2024/03/15 07:46:08;;;;;;;7.38;3.45;;;;;;;;;;5046782;28;20087;-80
2024/03/15 07:48:33;;;;;;;5.93;3.80;;;;;;;;;;5047173;28;20475;-80
2024/03/15 07:50:59;;;;;;;5.22;3.10;;;;;;;;;;5047697;28;20025;-78
2024/03/15 07:53:25;;;;;;;7.72;3.47;;;;;;;;;;5052391;28;20443;-77
2024/03/15 07:55:50;;;;;;;6.30;3.45;;;;;;;;;;5053501;28;20085;-77
2024/03/15 07:58:16;;;;;;;5.75;2.97;;;;;;;;;;5053825;28;20396;-78
2024/03/15 08:00:44;;;;;;;6.20;2.90;;;;;;;;;;5053231;28;20059;-77
2024/03/15 08:03:10;;;;;;;6.80;3.17;;;;;;;;;;5072449;28;20036;-77
2024/03/15 08:05:37;;;;;;;8.30;3.30;;;;;;;;;;5077539;28;20031;-77
2024/03/15 08:08:05;;;;;;;8.63;3.30;;;;;;;;;;5072719;28;20593;-77
2024/03/15 08:10:31;;;;;;;7.10;3.40;;;;;;;;;;5072975;28;20032;-77
2024/03/15 08:12:56;;;;;;;6.15;3.35;;;;;;;;;;5051458;28;20037;-77
2024/03/15 08:15:23;;;;;;;7.85;3.20;;;;;;;;;;5037627;28;20029;-79
2024/03/15 08:17:50;;;;;;;6.80;3.45;;;;;;;;;;5041091;28;20075;-78
2024/03/15 08:20:15;;;;;;;6.60;3.80;;;;;;;;;;5057578;28;20032;-77
2024/03/15 08:22:41;;;;;;;6.25;3.20;;;;;;;;;;5041145;28;20033;-77
2024/03/15 08:25:09;;;;;;;6.28;3.67;;;;;;;;;;5043530;28;20101;-78
2024/03/15 08:27:35;;;;;;;5.30;3.40;;;;;;;;;;5063297;28;20544;-77
2024/03/15 08:30:03;;;;;;;6.90;3.80;;;;;;;;;;5046301;28;20747;-78
2024/03/15 08:32:31;;;;;;;6.22;3.70;;;;;;;;;;5043286;28;20506;-78
2024/03/15 08:34:58;;;;;;;7.47;3.92;;;;;;;;;;5042269;28;20119;-79
2024/03/15 08:37:24;;;;;;;6.55;3.92;;;;;;;;;;5052837;28;20094;-78
2024/03/15 08:39:50;;;;;;;7.00;3.80;;;;;;;;;;5038352;28;20058;-79
2024/03/15 08:42:15;;;;;;;6.30;3.53;;;;;;;;;;5057758;28;20491;-78
2024/03/15 08:44:41;;;;;;;6.03;3.35;;;;;;;;;;5059265;28;20032;-78
2024/03/15 08:47:07;;;;;;;6.95;3.63;;;;;;;;;;5051865;28;20039;-79
2024/03/15 08:49:32;;;;;;;6.80;3.65;;;;;;;;;;5036705;28;20032;-77
2024/03/15 08:51:58;;;;;;;7.50;3.83;;;;;;;;;;5052214;28;20090;-77
2024/03/15 08:54:24;;;;;;;7.82;3.65;;;;;;;;;;5074056;28;20037;-78
2024/03/15 08:56:49;;;;;;;5.47;3.00;;;;;;;;;;5048910;28;20020;-79
2024/03/15 08:59:17;;;;;;;7.22;2.65;;;;;;;;;;5073336;28;20050;-77
2024/03/15 09:01:46;;;;;;;6.25;3.47;;;;;;;;;;5056638;28;20115;-78
2024/03/15 09:04:12;;;;;;;7.82;3.25;;;;;;;;;;5044127;28;20033;-79
2024/03/15 09:06:38;;;;;;;6.40;3.50;;;;;;;;;;5052841;28;20020;-79
2024/03/15 09:09:10;;;;;;;7.30;3.70;;;;;;;;;;5033363;28;20150;-78
2024/03/15 09:11:36;;;;;;;4.53;3.38;;;;;;;;;;5060027;28;20025;-79
2024/03/15 09:14:02;;;;;;;7.05;3.40;;;;;;;;;;5047869;28;20427;-77
2024/03/15 09:16:28;;;;;;;8.38;3.53;;;;;;;;;;5064888;28;20028;-77
2024/03/15 09:18:55;;;;;;;6.30;2.92;;;;;;;;;;5059326;28;20034;-77
2024/03/15 09:21:21;;;;;;;7.38;2.80;;;;;;;;;;5060287;28;20032;-78
2024/03/15 09:23:47;;;;;;;6.13;2.50;;;;;;;;;;5063509;28;20025;-78
2024/03/15 09:26:12;;;;;;;8.30;2.28;;;;;;;;;;5041668;28;20107;-81
2024/03/15 09:28:43;;;;;;;6.38;1.95;;;;;;;;;;5062187;28;20119;-81
2024/03/15 09:31:09;;;;;;;8.13;2.35;;;;;;;;;;5045116;28;20044;-82
2024/03/15 09:33:35;;;;;;;6.90;2.58;;;;;;;;;;5043693;28;20140;-82
2024/03/15 09:36:06;;;;;;;5.65;2.60;;;;;;;;;;5061326;28;20471;-80
2024/03/15 09:38:32;;;;;;;7.63;2.90;;;;;;;;;;5050377;28;20441;-81
2024/03/15 09:40:58;;;;;;;5.72;2.85;;;;;;;;;;5071021;28;20020;-81
2024/03/15 09:43:26;;;;;;;8.63;2.83;;;;;;;;;;5056823;28;20074;-76
2024/03/15 09:45:52;;;;;;;7.07;3.00;;;;;;;;;;5072728;28;20017;-77
2024/03/15 09:48:21;;;;;;;9.30;3.10;;;;;;;;;;5072203;28;20034;-77
2024/03/15 09:50:51;;;;;;;6.78;2.70;;;;;;;;;;5037521;28;20054;-77
2024/03/15 09:53:19;;;;;;;6.40;2.72;;;;;;;;;;5071043;28;20086;-77
2024/03/15 09:55:52;;;;;;;7.28;2.70;;;;;;;;;;5072955;28;20380;-77
2024/03/15 09:58:19;;;;;;;7.72;2.67;;;;;;;;;;5077305;28;20497;-77
2024/03/15 10:00:44;;;;;;;6.47;2.90;;;;;;;;;;5054332;28;20115;-80
2024/03/15 10:03:10;;;;;;;7.78;2.63;;;;;;;;;;5063616;28;20494;-82
2024/03/15 10:05:36;;;;;;;6.28;2.50;;;;;;;;;;5070726;28;20024;-82
2024/03/15 10:08:01;;;;;;;7.07;2.88;;;;;;;;;;5050144;28;20119;-80
2024/03/15 10:10:26;;;;;;;7.38;3.13;;;;;;;;;;5046987;28;20040;-77
2024/03/15 10:12:52;;;;;;;7.25;3.40;;;;;;;;;;5044966;28;20387;-77
2024/03/15 10:15:20;;;;;;;7.78;3.25;;;;;;;;;;5042889;28;20472;-78
2024/03/15 10:17:47;;;;;;;8.43;3.47;;;;;;;;;;5046439;28;20047;-77
2024/03/15 10:20:19;;;;;;;6.47;3.63;;;;;;;;;;5048891;28;20429;-77
2024/03/15 10:22:45;;;;;;;8.10;3.13;;;;;;;;;;5064322;28;20504;-81
2024/03/15 10:25:15;;;;;;;7.90;3.40;;;;;;;;;;5032386;28;20061;-82
2024/03/15 10:27:43;;;;;;;8.55;3.40;;;;;;;;;;5063262;28;20064;-82
2024/03/15 10:30:24;;;;;;;8.63;3.13;;;;;;;;;;5066650;28;20093;-82
2024/03/15 10:32:51;;;;;;;6.60;3.15;;;;;;;;;;5046667;28;20031;-82
2024/03/15 10:35:20;;;;;;;7.90;3.70;;;;;;;;;;5048678;28;20475;-80
2024/03/15 10:37:50;;;;;;;8.85;3.42;;;;;;;;;;5048645;28;20168;-78
2024/03/15 10:40:23;;;;;;;8.65;3.10;;;;;;;;;;5045994;28;20064;-78
2024/03/15 10:42:53;;;;;;;6.28;3.30;;;;;;;;;;5049419;28;20020;-77
2024/03/15 10:45:26;;;;;;;7.72;3.10;;;;;;;;;;5050053;28;20032;-80
2024/03/15 10:47:53;;;;;;;9.75;2.97;;;;;;;;;;5063963;28;20024;-80
2024/03/15 10:50:21;;;;;;;8.65;3.42;;;;;;;;;;5046892;28;20399;-80
2024/03/15 10:52:48;;;;;;;7.03;3.53;;;;;;;;;;5064223;28;20024;-81
2024/03/15 10:55:17;;;;;;;6.05;3.15;;;;;;;;;;5062614;28;20039;-80
2024/03/15 10:57:43;;;;;;;7.28;3.40;;;;;;;;;;5064882;28;20031;-80
2024/03/15 11:00:16;;;;;;;8.52;3.60;;;;;;;;;;5066818;28;20016;-80
2024/03/15 11:02:45;;;;;;;8.93;3.70;;;;;;;;;;5048442;28;20082;-80
2024/03/15 11:05:18;;;;;;;6.10;3.50;;;;;;;;;;5073898;28;20032;-81
2024/03/15 11:07:45;;;;;;;7.05;3.53;;;;;;;;;;5053502;28;20020;-81
2024/03/15 11:10:13;;;;;;;7.10;3.83;;;;;;;;;;5073747;28;20476;-81
2024/03/15 11:12:39;;;;;;;5.30;3.00;;;;;;;;;;5069704;28;20094;-81
2024/03/15 11:15:23;;;;;;;7.43;3.60;;;;;;;;;;5055813;28;20029;-81
2024/03/15 11:18:04;;;;;;;5.10;2.80;;;;;;;;;;5071860;28;20043;-81
2024/03/15 11:21:17;;;;;;;6.28;2.85;;;;;;;;;;5071049;28;20443;-82
2024/03/15 11:23:42;;;;;;;6.97;2.67;;;;;;;;;;4975948;28;20041;-80
2024/03/15 11:26:08;;;;;;;6.90;2.30;;;;;;;;;;5045795;28;20491;-80
2024/03/15 11:28:37;;;;;;;5.22;2.20;;;;;;;;;;5071825;28;20075;-80
2024/03/15 11:31:13;;;;;;;6.65;2.08;;;;;;;;;;5050792;28;20468;-80
2024/03/15 11:33:39;;;;;;;4.93;1.98;;;;;;;;;;5051903;28;20107;-80
2024/03/15 11:36:04;;;;;;;4.28;1.73;;;;;;;;;;5073958;28;20052;-81
2024/03/15 11:38:29;;;;;;;4.95;1.75;;;;;;;;;;5054261;28;20391;-82
2024/03/15 11:40:58;;;;;;;6.00;1.90;;;;;;;;;;5069819;28;20021;-81
2024/03/15 11:43:24;;;;;;;7.20;2.10;;;;;;;;;;5055765;28;20036;-81
2024/03/15 11:45:49;;;;;;;4.00;1.90;;;;;;;;;;5049042;28;20070;-81
2024/03/15 11:48:20;;;;;;;5.13;2.67;;;;;;;;;;5072012;28;20028;-81
2024/03/15 11:50:48;;;;;;;4.32;2.40;;;;;;;;;;5069340;28;20025;-81
2024/03/15 11:53:14;;;;;;;6.43;2.20;;;;;;;;;;5065614;28;20078;-81
2024/03/15 11:55:41;;;;;;;5.07;2.17;;;;;;;;;;5050428;28;20035;-81
2024/03/15 11:58:14;;;;;;;6.93;2.50;;;;;;;;;;5066517;28;20451;-81
2024/03/15 12:00:53;;;;;;;4.85;2.10;;;;;;;;;;5080115;28;20477;-81
2024/03/15 12:03:25;;;;;;;4.60;2.10;;;;;;;;;;5055883;28;20028;-81
2024/03/15 12:05:51;;;;;;;6.45;2.47;;;;;;;;;;5083819;28;21274;-82
2024/03/15 12:08:24;;;;;;;6.35;2.35;;;;;;;;;;5077297;28;20090;-81
2024/03/15 12:10:51;;;;;;;7.07;2.00;;;;;;;;;;5067450;28;20426;-82
2024/03/15 12:13:24;;;;;;;6.07;2.72;;;;;;;;;;5070862;28;20124;-81
2024/03/15 12:15:51;;;;;;;5.57;2.53;;;;;;;;;;5054764;28;20020;-82
2024/03/15 12:18:22;;;;;;;6.65;2.72;;;;;;;;;;5055231;28;20495;-81
2024/03/15 12:20:50;;;;;;;4.90;2.88;;;;;;;;;;5054939;28;20484;-81
2024/03/15 12:23:17;;;;;;;4.88;2.90;;;;;;;;;;5055166;28;20122;-82
2024/03/15 12:25:43;;;;;;;6.68;3.13;;;;;;;;;;5054429;28;20032;-81
2024/03/15 12:28:17;;;;;;;5.20;3.10;;;;;;;;;;5059056;28;20024;-82
2024/03/15 12:30:44;;;;;;;6.07;2.90;;;;;;;;;;5070191;28;20028;-83
2024/03/15 12:33:10;;;;;;;5.50;2.65;;;;;;;;;;5053143;28;20123;-84
2024/03/15 12:35:36;;;;;;;6.25;2.83;;;;;;;;;;5053465;28;20115;-83
2024/03/15 12:38:02;;;;;;;6.05;2.83;;;;;;;;;;5054519;28;20051;-83
2024/03/15 12:40:28;;;;;;;6.57;2.80;;;;;;;;;;5051684;28;20399;-83
2024/03/15 12:42:53;;;;;;;5.65;2.92;;;;;;;;;;5070152;28;20035;-82
2024/03/15 12:45:19;;;;;;;5.53;3.00;;;;;;;;;;5051497;28;20024;-83
2024/03/15 12:47:45;;;;;;;5.47;2.58;;;;;;;;;;5046152;28;20020;-83
2024/03/15 12:50:17;;;;;;;4.40;2.70;;;;;;;;;;5070051;28;20029;-83
2024/03/15 12:52:42;;;;;;;4.78;2.53;;;;;;;;;;5051050;28;20437;-82
2024/03/15 12:55:17;;;;;;;6.32;2.75;;;;;;;;;;5069888;28;20020;-82
2024/03/15 12:57:44;;;;;;;5.10;2.50;;;;;;;;;;5066782;28;20025;-82
2024/03/15 13:00:14;;;;;;;5.30;2.58;;;;;;;;;;5052181;28;20102;-83
2024/03/15 13:02:40;;;;;;;4.25;2.50;;;;;;;;;;5071735;28;20040;-83
2024/03/15 13:05:09;;;;;;;5.47;2.20;;;;;;;;;;5073661;28;20032;-84
2024/03/15 13:07:35;;;;;;;4.60;2.47;;;;;;;;;;5070316;28;20525;-82
2024/03/15 13:10:00;;;;;;;5.40;2.30;;;;;;;;;;5054634;28;20764;-83
2024/03/15 13:12:27;;;;;;;5.03;2.10;;;;;;;;;;5051816;28;20033;-77
2024/03/15 13:14:54;;;;;;;5.40;2.03;;;;;;;;;;5072061;28;20028;-77
2024/03/15 13:17:21;;;;;;;5.65;2.20;;;;;;;;;;5068029;28;20020;-78
2024/03/15 13:19:46;;;;;;;7.20;1.90;;;;;;;;;;5053975;28;20435;-77
2024/03/15 13:22:12;;;;;;;4.13;1.70;;;;;;;;;;5069462;28;20044;-78
2024/03/15 13:24:38;;;;;;;4.80;1.70;;;;;;;;;;5059414;28;20024;-77
2024/03/15 13:27:03;;;;;;;4.10;1.83;;;;;;;;;;5068280;28;20009;-77
2024/03/15 13:29:29;;;;;;;3.70;1.70;;;;;;;;;;5071317;28;20020;-79
2024/03/15 13:31:55;;;;;;;2.90;1.50;;;;;;;;;;5069632;28;20101;-81
2024/03/15 13:34:21;;;;;;;6.28;2.17;;;;;;;;;;5053465;28;20032;-81
2024/03/15 13:36:46;;;;;;;3.58;1.90;;;;;;;;;;5053042;28;20380;-81
2024/03/15 13:39:21;;;;;;;4.38;2.17;;;;;;;;;;5033645;28;20032;-81
2024/03/15 13:41:51;;;;;;;2.88;1.60;;;;;;;;;;5051989;28;20444;-83
2024/03/15 13:44:16;;;;;;;3.80;1.88;;;;;;;;;;5048229;28;20029;-82
2024/03/15 13:46:47;;;;;;;3.38;1.65;;;;;;;;;;5069112;28;20108;-82
2024/03/15 13:49:12;;;;;;;3.67;1.77;;;;;;;;;;5051437;28;20024;-83
2024/03/15 13:51:38;;;;;;;3.50;1.70;;;;;;;;;;5068818;28;20107;-83
2024/03/15 13:54:04;;;;;;;4.32;1.92;;;;;;;;;;5064557;28;20050;-81
2024/03/15 13:56:35;;;;;;;3.55;1.60;;;;;;;;;;5070031;28;20427;-85
2024/03/15 13:59:01;;;;;;;2.95;1.42;;;;;;;;;;5068615;28;20016;-85
2024/03/15 14:01:26;;;;;;;2.95;1.70;;;;;;;;;;5051540;28;20040;-84
2024/03/15 14:03:52;;;;;;;6.72;1.85;;;;;;;;;;5063663;28;20029;-84
2024/03/15 14:06:20;;;;;;;6.15;1.88;;;;;;;;;;5053227;28;20025;-84
2024/03/15 14:08:45;;;;;;;4.00;1.90;;;;;;;;;;5071051;28;20454;-83
2024/03/15 14:11:12;;;;;;;4.60;2.05;;;;;;;;;;5051749;28;20108;-84
2024/03/15 14:13:39;;;;;;;6.00;1.90;;;;;;;;;;5069493;28;20047;-84
2024/03/15 14:16:06;;;;;;;2.13;1.00;;;;;;;;;;5044636;28;20123;-86
2024/03/15 14:18:42;;;;;;;3.97;1.40;;;;;;;;;;5076678;28;20025;-83
2024/03/15 14:21:09;;;;;;;3.38;1.52;;;;;;;;;;5059316;28;20016;-83
2024/03/15 14:23:35;;;;;;;2.05;1.30;;;;;;;;;;5075010;28;20025;-84
2024/03/15 14:26:02;;;;;;;3.20;1.30;;;;;;;;;;5056225;28;20472;-84
2024/03/15 14:28:28;;;;;;;2.92;1.10;;;;;;;;;;5053902;28;20049;-84
2024/03/15 14:30:54;;;;;;;3.47;1.17;;;;;;;;;;5056245;28;20059;-84
2024/03/15 14:33:20;;;;;;;3.70;1.63;;;;;;;;;;5071554;28;20432;-84
2024/03/15 14:35:46;;;;;;;4.47;1.52;;;;;;;;;;5056497;28;20085;-84
2024/03/15 14:38:14;;;;;;;2.53;1.65;;;;;;;;;;5056370;28;20403;-84
2024/03/15 14:40:39;;;;;;;5.10;2.10;;;;;;;;;;5072194;28;20533;-84
2024/03/15 14:43:06;;;;;;;4.93;2.25;;;;;;;;;;5056408;28;20049;-84
2024/03/15 14:45:35;;;;;;;3.33;2.00;;;;;;;;;;5055859;28;20537;-84
2024/03/15 14:48:03;;;;;;;4.70;2.40;;;;;;;;;;5049812;28;20043;-84
2024/03/15 14:50:30;;;;;;;6.95;2.40;;;;;;;;;;5053112;28;20067;-84